createdAt,value
2023-04-03T00:00:56.537Z,98739.34
2023-04-03T00:05:58.327Z,98738.66
2023-04-03T00:10:59.978Z,98735.56
2023-04-03T00:16:01.913Z,98741.78
2023-04-03T00:21:04.308Z,98742.72
2023-04-03T00:26:05.967Z,98742.25
2023-04-03T00:31:07.687Z,98740.41
2023-04-03T00:36:10.735Z,98740.59
2023-04-03T00:41:12.894Z,98748.25
2023-04-03T00:46:15.001Z,98745.84
2023-04-03T00:51:25.619Z,98750.75
2023-04-03T00:56:30.774Z,98754.88
2023-04-03T01:01:33.053Z,98755.88
2023-04-03T01:06:38.169Z,98756.44
2023-04-03T01:11:42.502Z,98760.53
2023-04-03T01:16:44.235Z,98762.19
2023-04-03T01:22:04.694Z,98761.72
2023-04-03T01:27:09.153Z,98762.25
2023-04-03T01:32:11.314Z,98771.75
2023-04-03T01:37:12.992Z,98778.50
2023-04-03T01:42:16.916Z,98783.63
2023-04-03T01:47:19.850Z,98784.69
2023-04-03T01:52:21.616Z,98784.22
2023-04-03T01:57:23.388Z,98781.72
2023-04-03T02:02:25.699Z,98789.09
2023-04-03T02:07:28.258Z,98789.53
2023-04-03T02:12:29.903Z,98786.41
2023-04-03T02:17:31.635Z,98791.75
2023-04-03T02:22:33.285Z,98790.38
2023-04-03T02:27:34.969Z,98780.53
2023-04-03T02:32:36.597Z,98786.56
2023-04-03T02:37:39.071Z,98798.69
2023-04-03T02:42:40.771Z,98792.25
2023-04-03T02:47:42.535Z,98800.16
2023-04-03T02:52:45.110Z,98799.66
2023-04-03T02:57:47.176Z,98805.81
2023-04-03T03:02:50.460Z,98805.19
2023-04-03T03:07:52.155Z,98812.84
2023-04-03T03:12:53.802Z,98804.97
2023-04-03T03:17:55.572Z,98804.38
2023-04-03T03:22:57.280Z,98816.34
2023-04-03T03:27:58.902Z,98811.47
2023-04-03T03:33:00.750Z,98817.78
2023-04-03T03:38:02.417Z,98825.94
2023-04-03T03:43:04.306Z,98827.13
2023-04-03T03:48:06.864Z,98826.63
2023-04-03T03:53:08.909Z,98831.34
2023-04-03T03:58:10.774Z,98837.81
2023-04-03T04:03:13.092Z,98845.75
2023-04-03T04:08:16.056Z,98840.22
2023-04-03T04:13:19.733Z,98850.69
2023-04-03T04:18:23.538Z,98846.91
2023-04-03T04:23:25.684Z,98862.31
2023-04-03T04:28:28.772Z,98858.03
2023-04-03T04:33:32.490Z,98856.25
2023-04-03T04:38:37.217Z,98859.28
2023-04-03T04:43:39.247Z,98861.38
2023-04-03T04:48:41.501Z,98868.47
2023-04-03T04:53:44.383Z,98869.47
2023-04-03T04:58:49.059Z,98873.25
2023-04-03T05:03:53.300Z,98881.59
2023-04-03T05:08:54.982Z,98886.19
2023-04-03T05:13:57.737Z,98893.97
2023-04-03T05:19:01.140Z,98887.09
2023-04-03T05:24:04.428Z,98897.09
2023-04-03T05:29:08.911Z,98905.41
2023-04-03T05:34:12.484Z,98900.09
2023-04-03T05:39:15.633Z,98904.22
2023-04-03T05:44:19.382Z,98903.03
2023-04-03T05:49:22.640Z,98913.59
2023-04-03T05:54:27.031Z,98918.09
2023-04-03T05:59:34.877Z,98926.06
2023-04-03T06:04:36.935Z,98932.72
2023-04-03T06:09:38.788Z,98931.22
2023-04-03T06:14:40.557Z,98940.13
2023-04-03T06:19:42.360Z,98942.63
2023-04-03T06:24:44.776Z,98940.44
2023-04-03T06:29:46.499Z,98932.72
2023-04-03T06:34:48.227Z,98940.16
2023-04-03T06:39:50.386Z,98945.25
2023-04-03T06:44:52.050Z,98955.41
2023-04-03T06:49:53.723Z,98962.53
2023-04-03T06:54:58.644Z,98960.94
2023-04-03T07:00:00.890Z,98960.72
2023-04-03T07:05:03.417Z,98971.53
2023-04-03T07:10:06.578Z,98980.16
2023-04-03T07:15:09.366Z,98978.59
2023-04-03T07:20:11.925Z,98982.66
2023-04-03T07:25:15.975Z,98991.53
2023-04-03T07:30:17.586Z,98993.63
2023-04-03T07:35:19.911Z,99002.50
2023-04-03T07:40:22.149Z,99012.81
2023-04-03T07:45:24.887Z,99008.28
2023-04-03T07:50:27.228Z,99017.16
2023-04-03T07:55:28.910Z,99014.31
2023-04-03T08:00:31.099Z,99015.38
2023-04-03T08:05:32.968Z,99023.38
2023-04-03T08:10:35.746Z,99021.16
2023-04-03T08:15:38.105Z,99031.50
2023-04-03T08:20:41.439Z,99041.16
2023-04-03T08:25:44.082Z,99039.34
2023-04-03T08:30:47.072Z,99039.44
2023-04-03T08:35:48.723Z,99040.16
2023-04-03T08:41:03.128Z,99045.88
2023-04-03T08:46:07.403Z,99050.56
2023-04-03T08:51:18.069Z,99049.81
2023-04-03T08:56:20.120Z,99052.16
2023-04-03T09:01:31.024Z,99054.16
2023-04-03T09:06:33.973Z,99052.38
2023-04-03T09:11:51.052Z,99059.53
2023-04-03T09:17:02.080Z,99061.31
2023-04-03T09:22:17.684Z,99074.38
2023-04-03T09:27:19.403Z,99071.00
2023-04-03T09:32:32.994Z,99071.63
2023-04-03T09:37:43.660Z,99074.28
2023-04-03T09:42:51.996Z,99076.97
2023-04-03T09:48:18.039Z,99077.16
2023-04-03T09:53:40.841Z,99063.59
2023-04-03T09:58:50.478Z,99063.19
2023-04-03T10:04:17.724Z,99052.72
2023-04-03T10:09:28.488Z,99060.69
2023-04-03T10:14:31.057Z,99055.59
2023-04-03T10:19:44.513Z,99043.16
2023-04-03T10:25:04.142Z,99042.00
2023-04-03T10:30:30.064Z,99034.53
2023-04-03T10:36:12.637Z,99038.06
2023-04-03T10:41:35.412Z,99034.25
2023-04-03T10:46:49.534Z,99034.03
2023-04-03T10:52:22.276Z,99028.16
2023-04-03T10:57:26.166Z,99024.69
2023-04-03T11:02:37.624Z,99019.72
2023-04-03T11:07:43.633Z,99013.72
2023-04-03T11:12:50.106Z,99004.22
2023-04-03T11:18:21.971Z,99010.53
2023-04-03T11:23:35.679Z,99004.28
2023-04-03T11:28:45.453Z,99002.44
2023-04-03T11:33:59.483Z,98993.13
2023-04-03T11:39:11.177Z,98996.75
2023-04-03T11:44:48.577Z,98991.88
2023-04-03T11:50:06.508Z,98988.31
2023-04-03T11:55:20.401Z,98984.66
2023-04-03T12:00:53.615Z,98975.50
2023-04-03T12:06:18.296Z,98972.94
2023-04-03T12:11:19.836Z,98965.63
2023-04-03T12:16:27.306Z,98968.50
2023-04-03T12:21:35.033Z,98968.41
2023-04-03T12:26:58.092Z,98960.63
2023-04-03T12:32:24.076Z,98965.03
2023-04-03T12:37:25.656Z,98946.00
2023-04-03T12:42:30.176Z,98956.03
2023-04-03T12:47:39.170Z,98961.88
2023-04-03T12:52:45.098Z,98953.78
2023-04-03T12:57:47.339Z,98955.19
2023-04-03T13:02:49.265Z,98942.84
2023-04-03T13:08:15.950Z,98950.13
2023-04-03T13:13:17.987Z,98952.66
2023-04-03T13:18:36.473Z,98951.75
2023-04-03T13:23:41.494Z,98946.22
2023-04-03T13:28:44.653Z,98939.91
2023-04-03T13:34:04.033Z,98941.56
2023-04-03T13:39:27.919Z,98936.38
2023-04-03T13:44:36.713Z,98931.53
2023-04-03T13:49:41.276Z,98932.16
2023-04-03T13:54:43.157Z,98927.97
2023-04-03T13:59:45.061Z,98927.75
2023-04-03T14:04:57.385Z,98923.53
2023-04-03T14:09:59.583Z,98926.88
2023-04-03T14:15:02.859Z,98928.13
2023-04-03T14:20:05.300Z,98926.59
2023-04-03T14:25:07.327Z,98934.53
2023-04-03T14:30:33.938Z,98920.53
2023-04-03T14:35:35.586Z,98917.00
2023-04-03T14:40:37.441Z,98920.31
2023-04-03T14:45:40.099Z,98911.94
2023-04-03T14:50:49.125Z,98908.19
2023-04-03T14:55:56.444Z,98906.91
2023-04-03T15:00:58.097Z,98904.63
2023-04-03T15:06:00.250Z,98904.25
2023-04-03T15:11:02.080Z,98899.03
2023-04-03T15:16:05.011Z,98905.22
2023-04-03T15:21:06.743Z,98907.28
2023-04-03T15:26:08.782Z,98904.50
2023-04-03T15:31:10.691Z,98908.53
2023-04-03T15:41:18.704Z,98896.19
2023-04-03T15:46:20.579Z,98908.88
2023-04-03T15:51:22.252Z,98916.22
2023-04-03T15:56:23.841Z,98919.94
2023-04-03T16:01:25.767Z,98916.31
2023-04-03T16:06:30.320Z,98914.09
2023-04-03T16:11:31.927Z,98918.41
2023-04-03T16:16:33.947Z,98913.81
2023-04-03T16:21:35.820Z,98911.19
2023-04-03T16:26:37.523Z,98914.53
2023-04-03T16:31:39.332Z,98914.09
2023-04-03T16:36:41.102Z,98913.53
2023-04-03T16:41:42.775Z,98919.13
2023-04-03T16:46:46.236Z,98911.34
2023-04-03T16:51:50.370Z,98916.72
2023-04-03T16:56:52.027Z,98918.47
2023-04-03T17:01:53.716Z,98923.13
2023-04-03T17:06:56.208Z,98923.88
2023-04-03T17:11:57.791Z,98917.91
2023-04-03T17:16:59.546Z,98919.44
2023-04-03T17:22:02.376Z,98922.03
2023-04-03T17:27:04.243Z,98921.72
2023-04-03T17:32:05.967Z,98926.41
2023-04-03T17:37:07.742Z,98937.91
2023-04-03T17:42:09.528Z,98930.31
2023-04-03T17:47:11.204Z,98939.56
2023-04-03T17:52:12.867Z,98939.50
2023-04-03T17:57:14.497Z,98944.06
2023-04-03T18:02:16.329Z,98947.03
2023-04-03T18:07:17.989Z,98948.13
2023-04-03T18:12:19.850Z,98957.50
2023-04-03T18:17:22.341Z,98953.34
2023-04-03T18:22:24.492Z,98958.63
2023-04-03T18:27:28.099Z,98956.28
2023-04-03T18:32:29.849Z,98956.34
2023-04-03T18:37:31.863Z,98960.31
2023-04-03T18:42:33.600Z,98962.31
2023-04-03T18:47:36.867Z,98958.28
2023-04-03T18:52:38.518Z,98960.16
2023-04-03T18:57:40.155Z,98959.50
2023-04-03T19:02:42.449Z,98959.69
2023-04-03T19:07:44.837Z,98956.47
2023-04-03T19:12:48.459Z,98942.84
2023-04-03T19:17:51.015Z,98944.66
2023-04-03T19:22:53.744Z,98955.00
2023-04-03T19:27:55.641Z,98951.44
2023-04-03T19:32:57.248Z,98953.38
2023-04-03T19:37:58.870Z,98956.09
2023-04-03T19:43:00.696Z,98951.69
2023-04-03T19:48:03.319Z,98949.28
2023-04-03T19:53:06.932Z,98957.19
2023-04-03T19:58:08.550Z,98951.59
2023-04-03T20:03:10.283Z,98954.25
2023-04-03T20:08:14.465Z,98956.56
2023-04-03T20:13:16.081Z,98953.06
2023-04-03T20:18:19.681Z,98953.63
2023-04-03T20:23:22.416Z,98956.75
2023-04-03T20:28:24.508Z,98960.72
2023-04-03T20:33:29.003Z,98957.78
2023-04-03T20:38:30.629Z,98952.47
2023-04-03T20:43:32.708Z,98951.50
2023-04-03T20:48:34.375Z,98949.09
2023-04-03T20:53:36.064Z,98948.34
2023-04-03T20:58:41.298Z,98935.47
2023-04-03T21:03:43.433Z,98939.53
2023-04-03T21:09:22.621Z,98935.38
2023-04-03T21:15:01.842Z,98935.94
2023-04-03T21:20:03.605Z,98935.44
2023-04-03T21:25:05.414Z,98931.09
2023-04-03T21:30:07.933Z,98928.69
2023-04-03T21:35:09.819Z,98926.13
2023-04-03T21:40:11.566Z,98923.41
2023-04-03T21:45:16.034Z,98930.94
2023-04-03T21:50:19.244Z,98920.69
2023-04-03T21:55:20.845Z,98914.50
2023-04-03T22:00:23.064Z,98916.41
2023-04-03T22:05:24.928Z,98911.75
2023-04-03T22:10:26.735Z,98918.84
2023-04-03T22:15:28.350Z,98916.41
2023-04-03T22:20:29.943Z,98913.75
2023-04-03T22:25:32.242Z,98905.19
2023-04-03T22:30:33.911Z,98903.13
2023-04-03T22:35:35.520Z,98901.06
2023-04-03T22:40:37.550Z,98898.31
2023-04-03T22:45:50.253Z,98897.59
2023-04-03T22:50:51.962Z,98893.84
2023-04-03T22:56:04.921Z,98893.38
2023-04-03T23:01:11.622Z,98892.38
2023-04-03T23:06:13.504Z,98885.28
2023-04-03T23:11:15.159Z,98881.81
2023-04-03T23:16:17.437Z,98880.75
2023-04-03T23:21:19.102Z,98889.09
2023-04-03T23:26:20.698Z,98883.81
2023-04-03T23:31:22.914Z,98876.53
2023-04-03T23:36:24.527Z,98883.88
2023-04-03T23:41:26.122Z,98888.41
2023-04-03T23:46:27.756Z,98880.09
2023-04-03T23:51:29.472Z,98877.69
2023-04-03T23:56:31.484Z,98872.97
